Terminal Aerodrome Forecast
Issued by NWS Bismarck, ND

Home | Current Version | Previous Version | Text Only | Print | Product List | Glossary On
Versions: 1 2 3 4 5 6 7 8 9 10 11 12 13
000
FTUS43 KBIS 260500
TAFBIS
TAF
KBIS 260535Z 2606/2706 13012KT P6SM BKN250
     FM261600 17007KT P6SM FEW035 BKN250
     FM262100 30010KT P6SM SCT100 BKN250=

USA.gov is the U.S. government's official web portal to all federal, state and local government web resources and services.